Time,TemperatureF,DewpointF,PressureIn,WindDirection,WindDirectionDegrees,WindSpeedMPH,WindSpeedGustMPH,Humidity,HourlyPrecipIn,Conditions,Clouds,dailyrainin,SoftwareType,DateUTC
2013-07-13 00:00:00,61.9,56.3,29.86,NNW,333,0.0,0.0,82,0.00,,,0.00,Wunderground v.1.15,2013-07-13 04:00:00,
2013-07-13 00:05:00,61.7,56.5,29.86,NNW,333,0.0,0.0,83,0.00,,,0.00,Wunderground v.1.15,2013-07-13 04:05:00,
2013-07-13 00:10:00,61.6,56.0,29.87,NNW,333,0.0,0.0,82,0.00,,,0.00,Wunderground v.1.15,2013-07-13 04:10:00,
2013-07-13 00:15:00,61.6,56.7,29.87,NNW,333,0.0,0.0,84,0.00,,,0.00,Wunderground v.1.15,2013-07-13 04:15:00,
2013-07-13 00:25:00,61.4,57.2,29.88,NNW,333,0.0,0.0,86,0.00,,,0.00,Wunderground v.1.15,2013-07-13 04:25:00,
2013-07-13 00:35:00,61.1,56.6,29.88,NNW,333,0.0,0.0,85,0.00,,,0.00,Wunderground v.1.15,2013-07-13 04:35:00,
2013-07-13 00:40:00,60.9,56.4,29.88,NNW,333,0.0,0.0,85,0.00,,,0.00,Wunderground v.1.15,2013-07-13 04:40:00,
2013-07-13 00:45:00,60.6,56.1,29.88,NNW,333,0.0,0.0,85,0.00,,,0.00,Wunderground v.1.15,2013-07-13 04:45:00,
2013-07-13 00:50:00,60.3,56.1,29.89,NNW,333,0.0,0.0,86,0.00,,,0.00,Wunderground v.1.15,2013-07-13 04:50:00,
2013-07-13 01:00:00,60.2,56.3,29.88,SSW,197,0.0,2.0,87,0.00,,,0.00,Wunderground v.1.15,2013-07-13 05:00:00,
2013-07-13 01:05:00,60.2,56.6,29.88,SSW,197,0.0,2.0,88,0.00,,,0.00,Wunderground v.1.15,2013-07-13 05:05:00,
2013-07-13 01:10:00,60.0,56.4,29.89,SSW,197,0.0,0.0,88,0.00,,,0.00,Wunderground v.1.15,2013-07-13 05:10:00,
2013-07-13 01:15:00,59.8,56.2,29.89,SSW,197,0.0,0.0,88,0.00,,,0.00,Wunderground v.1.15,2013-07-13 05:15:00,
2013-07-13 01:25:00,59.4,55.8,29.89,NNW,348,0.0,0.0,88,0.00,,,0.00,Wunderground v.1.15,2013-07-13 05:25:00,
2013-07-13 01:30:00,59.3,55.7,29.89,NNW,348,0.0,2.0,88,0.00,,,0.00,Wunderground v.1.15,2013-07-13 05:30:00,
2013-07-13 01:40:00,58.8,55.6,29.89,North,349,0.0,0.0,89,0.00,,,0.00,Wunderground v.1.15,2013-07-13 05:40:00,
2013-07-13 01:45:00,58.8,55.6,29.89,North,349,0.0,0.0,89,0.00,,,0.00,Wunderground v.1.15,2013-07-13 05:45:00,
2013-07-13 01:50:00,58.9,55.7,29.90,North,349,0.0,0.0,89,0.00,,,0.00,Wunderground v.1.15,2013-07-13 05:50:00,
2013-07-13 02:00:00,59.2,55.6,29.90,North,349,0.0,0.0,88,0.00,,,0.00,Wunderground v.1.15,2013-07-13 06:00:00,
2013-07-13 02:05:00,59.1,55.5,29.90,North,349,0.0,0.0,88,0.00,,,0.00,Wunderground v.1.15,2013-07-13 06:05:00,
2013-07-13 02:10:00,59.1,55.9,29.90,North,349,0.0,0.0,89,0.00,,,0.00,Wunderground v.1.15,2013-07-13 06:10:00,
2013-07-13 02:20:00,58.7,55.5,29.90,North,349,0.0,0.0,89,0.00,,,0.00,Wunderground v.1.15,2013-07-13 06:20:00,
2013-07-13 02:30:00,58.7,55.5,29.90,North,349,0.0,0.0,89,0.00,,,0.00,Wunderground v.1.15,2013-07-13 06:30:00,
2013-07-13 02:40:00,58.7,55.5,29.90,North,349,0.0,0.0,89,0.00,,,0.00,Wunderground v.1.15,2013-07-13 06:40:00,
2013-07-13 02:50:00,58.6,55.4,29.90,North,349,0.0,0.0,89,0.00,,,0.00,Wunderground v.1.15,2013-07-13 06:50:00,
2013-07-13 03:00:00,58.7,55.5,29.91,North,349,0.0,2.0,89,0.00,,,0.00,Wunderground v.1.15,2013-07-13 07:00:00,
2013-07-13 03:10:00,57.7,54.8,29.91,North,349,1.0,1.0,90,0.00,,,0.00,Wunderground v.1.15,2013-07-13 07:10:00,
2013-07-13 03:20:00,57.5,54.9,29.91,North,349,0.0,0.0,91,0.00,,,0.00,Wunderground v.1.15,2013-07-13 07:20:00,
2013-07-13 03:30:00,57.6,55.0,29.91,North,349,0.0,0.0,91,0.00,,,0.00,Wunderground v.1.15,2013-07-13 07:30:00,
2013-07-13 03:40:00,57.7,55.1,29.91,North,349,0.0,0.0,91,0.00,,,0.00,Wunderground v.1.15,2013-07-13 07:40:00,
2013-07-13 03:50:00,57.8,55.2,29.91,North,349,0.0,0.0,91,0.00,,,0.00,Wunderground v.1.15,2013-07-13 07:50:00,
2013-07-13 04:00:00,57.7,55.1,29.91,North,349,0.0,0.0,91,0.00,,,0.00,Wunderground v.1.15,2013-07-13 08:00:00,
2013-07-13 04:10:00,57.9,55.3,29.91,North,349,0.0,0.0,91,0.00,,,0.00,Wunderground v.1.15,2013-07-13 08:10:00,
2013-07-13 04:20:00,57.5,55.2,29.91,North,349,0.0,0.0,92,0.00,,,0.00,Wunderground v.1.15,2013-07-13 08:20:00,
2013-07-13 04:25:00,57.1,54.8,29.91,North,350,0.0,0.0,92,0.00,,,0.00,Wunderground v.1.15,2013-07-13 08:25:00,
2013-07-13 04:30:00,56.9,54.9,29.91,North,350,0.0,0.0,93,0.00,,,0.00,Wunderground v.1.15,2013-07-13 08:30:00,
2013-07-13 04:40:00,56.9,55.2,29.91,North,350,0.0,0.0,94,0.00,,,0.00,Wunderground v.1.15,2013-07-13 08:40:00,
2013-07-13 04:50:00,56.9,55.2,29.91,NNW,348,0.0,0.0,94,0.00,,,0.00,Wunderground v.1.15,2013-07-13 08:50:00,
2013-07-13 05:00:00,57.1,55.4,29.91,NNW,348,0.0,0.0,94,0.00,,,0.00,Wunderground v.1.15,2013-07-13 09:00:00,
2013-07-13 05:10:00,56.7,54.7,29.92,NNW,348,0.0,0.0,93,0.00,,,0.00,Wunderground v.1.15,2013-07-13 09:10:00,
2013-07-13 05:15:00,56.7,55.0,29.92,NNW,348,0.0,0.0,94,0.00,,,0.00,Wunderground v.1.15,2013-07-13 09:15:00,
2013-07-13 05:20:00,56.7,55.0,29.92,NNW,348,0.0,0.0,94,0.00,,,0.00,Wunderground v.1.15,2013-07-13 09:20:00,
2013-07-13 05:30:00,56.8,55.1,29.92,NNW,348,0.0,0.0,94,0.00,,,0.00,Wunderground v.1.15,2013-07-13 09:30:00,
2013-07-13 05:40:00,57.1,55.4,29.92,NNW,348,0.0,0.0,94,0.00,,,0.00,Wunderground v.1.15,2013-07-13 09:40:00,
2013-07-13 05:50:00,56.7,54.7,29.93,NNW,348,0.0,1.0,93,0.00,,,0.00,Wunderground v.1.15,2013-07-13 09:50:00,
2013-07-13 06:00:00,56.5,54.8,29.93,NNW,348,0.0,0.0,94,0.00,,,0.00,Wunderground v.1.15,2013-07-13 10:00:00,
2013-07-13 06:10:00,57.2,55.8,29.93,NNW,348,0.0,1.0,95,0.00,,,0.00,Wunderground v.1.15,2013-07-13 10:10:00,
2013-07-13 06:20:00,57.8,56.1,29.93,North,349,1.0,1.0,94,0.00,,,0.00,Wunderground v.1.15,2013-07-13 10:20:00,
2013-07-13 06:30:00,59.0,57.3,29.93,North,355,0.0,1.0,94,0.00,,,0.00,Wunderground v.1.15,2013-07-13 10:30:00,
2013-07-13 06:40:00,60.8,58.8,29.93,North,355,0.0,0.0,93,0.00,,,0.00,Wunderground v.1.15,2013-07-13 10:40:00,
2013-07-13 06:50:00,62.7,60.0,29.93,North,355,0.0,1.0,91,0.00,,,0.00,Wunderground v.1.15,2013-07-13 10:50:00,
2013-07-13 07:00:00,64.0,60.4,29.93,North,355,1.0,2.0,88,0.00,,,0.00,Wunderground v.1.15,2013-07-13 11:00:00,
2013-07-13 07:05:00,64.2,59.6,29.93,North,355,1.0,2.0,85,0.00,,,0.00,Wunderground v.1.15,2013-07-13 11:05:00,
2013-07-13 07:15:00,64.1,60.2,29.94,North,355,1.0,1.0,87,0.00,,,0.00,Wunderground v.1.15,2013-07-13 11:15:00,
2013-07-13 07:20:00,64.6,60.3,29.94,North,355,1.0,1.0,86,0.00,,,0.00,Wunderground v.1.15,2013-07-13 11:20:00,
2013-07-13 07:25:00,65.6,61.3,29.94,North,355,0.0,1.0,86,0.00,,,0.00,Wunderground v.1.15,2013-07-13 11:25:00,
2013-07-13 07:30:00,66.6,61.9,29.94,North,355,0.0,0.0,85,0.00,,,0.00,Wunderground v.1.15,2013-07-13 11:30:00,
2013-07-13 07:35:00,66.8,61.1,29.94,North,355,0.0,3.0,82,0.00,,,0.00,Wunderground v.1.15,2013-07-13 11:35:00,
2013-07-13 07:40:00,65.9,60.6,29.94,South,185,1.0,1.0,83,0.00,,,0.00,Wunderground v.1.15,2013-07-13 11:40:00,
2013-07-13 07:45:00,65.4,60.4,29.94,South,185,1.0,1.0,84,0.00,,,0.00,Wunderground v.1.15,2013-07-13 11:45:00,
2013-07-13 07:55:00,66.7,62.7,29.95,South,182,0.0,0.0,87,0.00,,,0.00,Wunderground v.1.15,2013-07-13 11:55:00,
2013-07-13 08:00:00,67.7,63.0,29.95,South,182,0.0,0.0,85,0.00,,,0.00,Wunderground v.1.15,2013-07-13 12:00:00,
2013-07-13 08:05:00,68.3,62.9,29.95,South,182,0.0,0.0,83,0.00,,,0.00,Wunderground v.1.15,2013-07-13 12:05:00,
2013-07-13 08:10:00,68.9,63.2,29.95,South,180,0.0,0.0,82,0.00,,,0.00,Wunderground v.1.15,2013-07-13 12:10:00,
2013-07-13 08:15:00,68.9,62.5,29.94,South,180,0.0,0.0,80,0.00,,,0.00,Wunderground v.1.15,2013-07-13 12:15:00,
2013-07-13 08:25:00,69.8,63.0,29.95,East,85,1.0,1.0,79,0.00,,,0.00,Wunderground v.1.15,2013-07-13 12:25:00,
2013-07-13 08:35:00,70.4,63.2,29.95,East,98,0.0,1.0,78,0.00,,,0.00,Wunderground v.1.15,2013-07-13 12:35:00,
2013-07-13 08:40:00,70.6,63.0,29.95,ESE,113,0.0,1.0,77,0.00,,,0.00,Wunderground v.1.15,2013-07-13 12:40:00,
2013-07-13 08:50:00,71.2,62.9,29.96,East,85,0.0,0.0,75,0.00,,,0.00,Wunderground v.1.15,2013-07-13 12:50:00,
2013-07-13 08:55:00,71.4,63.4,29.96,NE,51,0.0,0.0,76,0.00,,,0.00,Wunderground v.1.15,2013-07-13 12:55:00,
2013-07-13 09:00:00,71.9,63.9,29.95,East,84,1.0,1.0,76,0.00,,,0.00,Wunderground v.1.15,2013-07-13 13:00:00,
2013-07-13 09:05:00,72.0,63.6,29.95,ENE,59,1.0,1.0,75,0.00,,,0.00,Wunderground v.1.15,2013-07-13 13:05:00,
2013-07-13 09:10:00,72.4,63.6,29.95,South,181,0.0,0.0,74,0.00,,,0.00,Wunderground v.1.15,2013-07-13 13:10:00,
2013-07-13 09:20:00,72.7,64.7,29.95,SSW,192,0.0,4.0,76,0.00,,,0.00,Wunderground v.1.15,2013-07-13 13:20:00,
2013-07-13 09:25:00,72.4,64.4,29.95,South,187,2.0,4.0,76,0.00,,,0.00,Wunderground v.1.15,2013-07-13 13:25:00,
2013-07-13 09:30:00,72.4,64.4,29.95,South,188,3.0,3.0,76,0.00,,,0.00,Wunderground v.1.15,2013-07-13 13:30:00,
2013-07-13 09:35:00,72.6,64.6,29.95,SSW,192,2.0,3.0,76,0.00,,,0.00,Wunderground v.1.15,2013-07-13 13:35:00,
2013-07-13 09:40:00,72.8,64.0,29.95,SSW,193,1.0,2.0,74,0.00,,,0.00,Wunderground v.1.15,2013-07-13 13:40:00,
2013-07-13 09:50:00,73.5,64.7,29.95,ESE,103,2.0,2.0,74,0.00,,,0.00,Wunderground v.1.15,2013-07-13 13:50:00,
2013-07-13 10:00:00,74.7,63.4,29.95,WSW,242,1.0,2.0,68,0.00,,,0.00,Wunderground v.1.15,2013-07-13 14:00:00,
2013-07-13 10:05:00,74.5,64.1,29.95,East,83,1.0,2.0,70,0.00,,,0.00,Wunderground v.1.15,2013-07-13 14:05:00,
2013-07-13 10:10:00,74.7,65.5,29.95,ESE,120,1.0,1.0,73,0.00,,,0.00,Wunderground v.1.15,2013-07-13 14:10:00,
2013-07-13 10:20:00,75.1,65.9,29.96,East,101,1.0,1.0,73,0.00,,,0.00,Wunderground v.1.15,2013-07-13 14:20:00,
2013-07-13 10:30:00,74.8,66.0,29.96,East,99,1.0,1.0,74,0.00,,,0.00,Wunderground v.1.15,2013-07-13 14:30:00,
2013-07-13 10:40:00,75.3,66.0,29.96,South,188,1.0,1.0,73,0.00,,,0.00,Wunderground v.1.15,2013-07-13 14:40:00,
2013-07-13 10:50:00,75.9,66.6,29.96,SSW,202,1.0,1.0,73,0.00,,,0.00,Wunderground v.1.15,2013-07-13 14:50:00,
2013-07-13 10:55:00,75.9,65.0,29.96,ESE,109,2.0,2.0,69,0.00,,,0.00,Wunderground v.1.15,2013-07-13 14:55:00,
2013-07-13 11:00:00,75.5,64.2,29.96,South,186,2.0,2.0,68,0.00,,,0.00,Wunderground v.1.15,2013-07-13 15:00:00,
2013-07-13 11:05:00,75.1,65.5,29.96,South,184,2.0,2.0,72,0.00,,,0.00,Wunderground v.1.15,2013-07-13 15:05:00,
2013-07-13 11:10:00,75.2,66.7,29.95,ESE,103,1.0,3.0,75,0.00,,,0.00,Wunderground v.1.15,2013-07-13 15:10:00,
2013-07-13 11:15:00,74.8,64.4,29.95,East,88,1.0,3.0,70,0.00,,,0.00,Wunderground v.1.15,2013-07-13 15:15:00,
2013-07-13 11:20:00,74.7,63.9,29.96,East,90,1.0,2.0,69,0.00,,,0.00,Wunderground v.1.15,2013-07-13 15:20:00,
2013-07-13 11:30:00,74.6,65.0,29.95,SSE,163,1.0,1.0,72,0.00,,,0.00,Wunderground v.1.15,2013-07-13 15:30:00,
2013-07-13 11:35:00,74.6,62.9,29.96,West,266,1.0,2.0,67,0.00,,,0.00,Wunderground v.1.15,2013-07-13 15:35:00,
2013-07-13 11:40:00,74.6,64.2,29.96,SW,214,1.0,1.0,70,0.00,,,0.00,Wunderground v.1.15,2013-07-13 15:40:00,
2013-07-13 11:50:00,74.4,63.1,29.95,SSW,211,1.0,1.0,68,0.00,,,0.00,Wunderground v.1.15,2013-07-13 15:50:00,
2013-07-13 12:00:00,74.4,63.1,29.95,SW,219,1.0,2.0,68,0.00,,,0.00,Wunderground v.1.15,2013-07-13 16:00:00,
2013-07-13 12:05:00,74.4,64.4,29.95,SW,217,1.0,2.0,71,0.00,,,0.00,Wunderground v.1.15,2013-07-13 16:05:00,
2013-07-13 12:15:00,74.4,64.0,29.95,SW,217,0.0,3.0,70,0.00,,,0.00,Wunderground v.1.15,2013-07-13 16:15:00,
2013-07-13 12:20:00,74.4,64.4,29.95,SSW,192,1.0,1.0,71,0.00,,,0.00,Wunderground v.1.15,2013-07-13 16:20:00,
2013-07-13 12:25:00,74.3,62.6,29.95,SSW,208,1.0,2.0,67,0.00,,,0.00,Wunderground v.1.15,2013-07-13 16:25:00,
2013-07-13 12:35:00,74.2,63.4,29.95,WSW,242,1.0,2.0,69,0.00,,,0.00,Wunderground v.1.15,2013-07-13 16:35:00,
2013-07-13 12:40:00,74.3,62.2,29.95,SSW,200,2.0,2.0,66,0.00,,,0.00,Wunderground v.1.15,2013-07-13 16:40:00,
2013-07-13 12:49:00,74.6,64.6,29.95,SW,215,1.0,2.0,71,0.00,,,0.00,Wunderground v.1.15,2013-07-13 16:49:00,
2013-07-13 12:55:00,74.7,61.3,29.95,SSW,202,2.0,4.0,63,0.00,,,0.00,Wunderground v.1.15,2013-07-13 16:55:00,
2013-07-13 13:05:00,75.2,62.2,29.95,SSW,213,2.0,4.0,64,0.00,,,0.00,Wunderground v.1.15,2013-07-13 17:05:00,
2013-07-13 13:10:00,75.3,61.8,29.95,SSW,198,2.0,4.0,63,0.00,,,0.00,Wunderground v.1.15,2013-07-13 17:10:00,
2013-07-13 13:20:00,75.7,64.8,29.95,South,188,3.0,3.0,69,0.00,,,0.00,Wunderground v.1.15,2013-07-13 17:20:00,
2013-07-13 13:30:00,76.3,63.7,29.95,South,171,2.0,3.0,65,0.00,,,0.00,Wunderground v.1.15,2013-07-13 17:30:00,
2013-07-13 13:35:00,76.6,61.7,29.94,SSW,194,3.0,6.0,60,0.00,,,0.00,Wunderground v.1.15,2013-07-13 17:35:00,
2013-07-13 13:45:00,76.5,60.6,29.94,SW,235,3.0,4.0,58,0.00,,,0.00,Wunderground v.1.15,2013-07-13 17:45:00,
2013-07-13 13:50:00,76.4,63.3,29.94,SSE,161,3.0,3.0,64,0.00,,,0.00,Wunderground v.1.15,2013-07-13 17:50:00,
2013-07-13 14:00:00,76.2,61.3,29.94,SSW,201,2.0,3.0,60,0.00,,,0.00,Wunderground v.1.15,2013-07-13 18:00:00,
2013-07-13 14:05:00,76.6,66.1,29.94,SW,223,2.0,3.0,70,0.00,,,0.00,Wunderground v.1.15,2013-07-13 18:05:00,
2013-07-13 14:10:00,77.1,64.0,29.94,SSW,196,2.0,2.0,64,0.00,,,0.00,Wunderground v.1.15,2013-07-13 18:10:00,
2013-07-13 14:15:00,77.1,62.1,29.94,SSW,194,2.0,2.0,60,0.00,,,0.00,Wunderground v.1.15,2013-07-13 18:15:00,
2013-07-13 14:20:00,77.3,62.8,29.94,SW,229,2.0,4.0,61,0.00,,,0.00,Wunderground v.1.15,2013-07-13 18:20:00,
2013-07-13 14:30:00,77.3,62.8,29.94,SW,230,1.0,1.0,61,0.00,,,0.00,Wunderground v.1.15,2013-07-13 18:30:00,
2013-07-13 14:35:00,77.3,64.2,29.94,WSW,242,2.0,5.0,64,0.00,,,0.00,Wunderground v.1.15,2013-07-13 18:35:00,
2013-07-13 14:40:00,77.2,64.1,29.93,South,189,3.0,6.0,64,0.00,,,0.00,Wunderground v.1.15,2013-07-13 18:40:00,
2013-07-13 14:50:00,77.9,64.7,29.93,SSW,202,3.0,6.0,64,0.00,,,0.00,Wunderground v.1.15,2013-07-13 18:50:00,
2013-07-13 15:00:00,78.7,65.5,29.93,South,185,3.0,4.0,64,0.00,,,0.00,Wunderground v.1.15,2013-07-13 19:00:00,
2013-07-13 15:10:00,77.9,64.3,29.94,WSW,238,5.0,5.0,63,0.00,,,0.00,Wunderground v.1.15,2013-07-13 19:10:00,
2013-07-13 15:15:00,77.8,64.6,29.94,SSW,196,4.0,5.0,64,0.00,,,0.00,Wunderground v.1.15,2013-07-13 19:15:00,
2013-07-13 15:20:00,77.3,64.6,29.94,South,186,4.0,4.0,65,0.00,,,0.00,Wunderground v.1.15,2013-07-13 19:20:00,
2013-07-13 15:30:00,75.8,62.8,29.94,SW,214,4.0,4.0,64,0.00,,,0.00,Wunderground v.1.15,2013-07-13 19:30:00,
2013-07-13 15:35:00,75.7,63.5,29.93,South,186,4.0,4.0,66,0.00,,,0.00,Wunderground v.1.15,2013-07-13 19:35:00,
2013-07-13 15:40:00,75.7,63.1,29.94,SW,234,2.0,2.0,65,0.00,,,0.00,Wunderground v.1.15,2013-07-13 19:40:00,
2013-07-13 15:45:00,75.6,62.6,29.93,SSW,209,2.0,2.0,64,0.00,,,0.00,Wunderground v.1.15,2013-07-13 19:45:00,
2013-07-13 15:55:00,75.2,63.5,29.94,SW,222,3.0,4.0,67,0.00,,,0.00,Wunderground v.1.15,2013-07-13 19:55:00,
2013-07-13 16:00:00,74.9,63.2,29.94,SW,216,3.0,3.0,67,0.00,,,0.00,Wunderground v.1.15,2013-07-13 20:00:00,
2013-07-13 16:05:00,74.4,63.1,29.94,SW,218,4.0,5.0,68,0.00,,,0.00,Wunderground v.1.15,2013-07-13 20:05:00,
2013-07-13 16:10:00,74.0,63.2,29.94,SSW,213,4.0,4.0,69,0.00,,,0.00,Wunderground v.1.15,2013-07-13 20:10:00,
2013-07-13 16:15:00,73.7,62.9,29.94,SW,231,4.0,4.0,69,0.00,,,0.00,Wunderground v.1.15,2013-07-13 20:15:00,
2013-07-13 16:25:00,74.0,63.2,29.94,SW,223,2.0,4.0,69,0.00,,,0.00,Wunderground v.1.15,2013-07-13 20:25:00,
2013-07-13 16:35:00,74.8,65.2,29.93,SSW,205,1.0,2.0,72,0.00,,,0.00,Wunderground v.1.15,2013-07-13 20:35:00,
2013-07-13 16:40:00,75.1,63.8,29.93,SE,133,1.0,1.0,68,0.00,,,0.00,Wunderground v.1.15,2013-07-13 20:40:00,
2013-07-13 16:45:00,75.3,64.8,29.93,SE,126,3.0,3.0,70,0.00,,,0.00,Wunderground v.1.15,2013-07-13 20:45:00,
2013-07-13 16:50:00,75.8,64.1,29.92,South,179,3.0,6.0,67,0.00,,,0.00,Wunderground v.1.15,2013-07-13 20:50:00,
2013-07-13 16:55:00,75.5,63.3,29.93,SW,216,3.0,6.0,66,0.00,,,0.00,Wunderground v.1.15,2013-07-13 20:55:00,
2013-07-13 17:00:00,75.6,64.7,29.93,SE,133,3.0,3.0,69,0.00,,,0.00,Wunderground v.1.15,2013-07-13 21:00:00,
2013-07-13 17:10:00,76.2,64.9,29.92,South,172,2.0,2.0,68,0.00,,,0.00,Wunderground v.1.15,2013-07-13 21:10:00,
2013-07-13 17:20:00,76.0,64.2,29.92,SSE,163,4.0,4.0,67,0.00,,,0.00,Wunderground v.1.15,2013-07-13 21:20:00,
2013-07-13 17:25:00,76.2,64.0,29.92,East,101,3.0,4.0,66,0.00,,,0.00,Wunderground v.1.15,2013-07-13 21:25:00,
2013-07-13 17:30:00,76.2,63.1,29.92,South,182,3.0,5.0,64,0.00,,,0.00,Wunderground v.1.15,2013-07-13 21:30:00,
2013-07-13 17:35:00,76.2,63.6,29.92,SSW,204,4.0,5.0,65,0.00,,,0.00,Wunderground v.1.15,2013-07-13 21:35:00,
2013-07-13 17:40:00,76.4,65.1,29.92,SE,144,5.0,5.0,68,0.00,,,0.00,Wunderground v.1.15,2013-07-13 21:40:00,
2013-07-13 17:50:00,76.4,64.2,29.92,SSE,164,3.0,4.0,66,0.00,,,0.00,Wunderground v.1.15,2013-07-13 21:50:00,
2013-07-13 17:55:00,76.3,64.5,29.92,SW,229,3.0,7.0,67,0.00,,,0.00,Wunderground v.1.15,2013-07-13 21:55:00,
2013-07-13 18:00:00,76.1,63.9,29.92,SSW,205,4.0,4.0,66,0.00,,,0.00,Wunderground v.1.15,2013-07-13 22:00:00,
2013-07-13 18:05:00,76.2,64.4,29.92,SSW,207,4.0,4.0,67,0.00,,,0.00,Wunderground v.1.15,2013-07-13 22:05:00,
2013-07-13 18:10:00,76.5,65.1,29.92,South,182,3.0,4.0,68,0.00,,,0.00,Wunderground v.1.15,2013-07-13 22:10:00,
2013-07-13 18:20:00,76.8,65.0,29.92,SW,219,2.0,4.0,67,0.00,,,0.00,Wunderground v.1.15,2013-07-13 22:20:00,
2013-07-13 18:30:00,76.2,64.4,29.92,South,185,4.0,4.0,67,0.00,,,0.00,Wunderground v.1.15,2013-07-13 22:30:00,
2013-07-13 18:40:00,76.1,65.2,29.92,SSW,203,2.0,5.0,69,0.00,,,0.00,Wunderground v.1.15,2013-07-13 22:40:00,
2013-07-13 18:45:00,75.8,64.5,29.92,South,171,3.0,5.0,68,0.00,,,0.00,Wunderground v.1.15,2013-07-13 22:45:00,
2013-07-13 18:50:00,75.7,64.8,29.92,South,184,4.0,4.0,69,0.00,,,0.00,Wunderground v.1.15,2013-07-13 22:50:00,
2013-07-13 19:00:00,75.4,64.1,29.92,SSW,198,3.0,5.0,68,0.00,,,0.00,Wunderground v.1.15,2013-07-13 23:00:00,
2013-07-13 19:05:00,75.2,64.3,29.92,SSW,200,4.0,5.0,69,0.00,,,0.00,Wunderground v.1.15,2013-07-13 23:05:00,
2013-07-13 19:10:00,75.0,64.1,29.92,South,181,4.0,4.0,69,0.00,,,0.00,Wunderground v.1.15,2013-07-13 23:10:00,
2013-07-13 19:15:00,74.9,64.5,29.92,SW,220,3.0,4.0,70,0.00,,,0.00,Wunderground v.1.15,2013-07-13 23:15:00,
2013-07-13 19:20:00,74.9,64.9,29.92,South,185,3.0,3.0,71,0.00,,,0.00,Wunderground v.1.15,2013-07-13 23:20:00,
2013-07-13 19:30:00,74.5,64.5,29.93,SW,231,3.0,3.0,71,0.00,,,0.00,Wunderground v.1.15,2013-07-13 23:30:00,
2013-07-13 19:35:00,74.4,64.8,29.92,South,173,3.0,4.0,72,0.00,,,0.00,Wunderground v.1.15,2013-07-13 23:35:00,
2013-07-13 19:40:00,74.2,65.0,29.93,South,183,3.0,3.0,73,0.00,,,0.00,Wunderground v.1.15,2013-07-13 23:40:00,
2013-07-13 19:50:00,73.5,64.7,29.93,SSW,213,3.0,3.0,74,0.00,,,0.00,Wunderground v.1.15,2013-07-13 23:50:00,
2013-07-13 19:55:00,73.2,64.8,29.93,SW,230,3.0,3.0,75,0.00,,,0.00,Wunderground v.1.15,2013-07-13 23:55:00,
2013-07-13 20:00:00,73.1,65.1,29.93,SW,227,2.0,3.0,76,0.00,,,0.00,Wunderground v.1.15,2013-07-14 00:00:00,
2013-07-13 20:05:00,72.9,64.9,29.93,South,186,2.0,3.0,76,0.00,,,0.00,Wunderground v.1.15,2013-07-14 00:05:00,
2013-07-13 20:15:00,72.5,64.9,29.93,South,184,1.0,1.0,77,0.00,,,0.00,Wunderground v.1.15,2013-07-14 00:15:00,
2013-07-13 20:20:00,72.4,64.8,29.93,South,184,1.0,1.0,77,0.00,,,0.00,Wunderground v.1.15,2013-07-14 00:20:00,
2013-07-13 20:30:00,72.1,64.9,29.93,South,184,0.0,1.0,78,0.00,,,0.00,Wunderground v.1.15,2013-07-14 00:30:00,
2013-07-13 20:40:00,71.6,64.7,29.93,South,184,0.0,0.0,79,0.00,,,0.00,Wunderground v.1.15,2013-07-14 00:40:00,
2013-07-13 20:50:00,71.3,64.8,29.94,South,184,1.0,1.0,80,0.00,,,0.00,Wunderground v.1.15,2013-07-14 00:50:00,
2013-07-13 21:00:00,71.0,64.5,29.94,South,184,1.0,1.0,80,0.00,,,0.00,Wunderground v.1.15,2013-07-14 01:00:00,
2013-07-13 21:10:00,70.8,64.7,29.94,South,184,1.0,1.0,81,0.00,,,0.00,Wunderground v.1.15,2013-07-14 01:10:00,
2013-07-13 21:15:00,70.6,64.5,29.94,South,189,1.0,3.0,81,0.00,,,0.00,Wunderground v.1.15,2013-07-14 01:15:00,
2013-07-13 21:20:00,70.5,64.7,29.94,SW,223,2.0,2.0,82,0.00,,,0.00,Wunderground v.1.15,2013-07-14 01:20:00,
2013-07-13 21:25:00,70.4,64.6,29.94,SW,223,2.0,2.0,82,0.00,,,0.00,Wunderground v.1.15,2013-07-14 01:25:00,
2013-07-13 21:30:00,70.2,64.4,29.94,SW,223,1.0,1.0,82,0.00,,,0.00,Wunderground v.1.15,2013-07-14 01:30:00,
2013-07-13 21:40:00,69.8,64.4,29.94,SW,223,0.0,3.0,83,0.00,,,0.00,Wunderground v.1.15,2013-07-14 01:40:00,
2013-07-13 21:50:00,69.6,64.5,29.94,SW,223,0.0,1.0,84,0.00,,,0.00,Wunderground v.1.15,2013-07-14 01:50:00,
2013-07-13 22:00:00,69.3,64.6,29.94,SW,222,1.0,1.0,85,0.00,,,0.00,Wunderground v.1.15,2013-07-14 02:00:00,
2013-07-13 22:10:00,68.8,64.4,29.95,SW,222,0.0,0.0,86,0.00,,,0.00,Wunderground v.1.15,2013-07-14 02:10:00,
2013-07-13 22:15:00,68.6,64.2,29.95,SW,222,0.0,0.0,86,0.00,,,0.00,Wunderground v.1.15,2013-07-14 02:15:00,
2013-07-13 22:24:00,68.4,64.4,29.95,SW,222,0.0,0.0,87,0.00,,,0.00,Wunderground v.1.15,2013-07-14 02:24:00,
2013-07-13 22:30:00,68.3,64.3,29.95,SW,222,0.0,0.0,87,0.00,,,0.00,Wunderground v.1.15,2013-07-14 02:30:00,
2013-07-13 22:40:00,68.4,64.4,29.95,SW,220,1.0,3.0,87,0.00,,,0.00,Wunderground v.1.15,2013-07-14 02:40:00,
2013-07-13 22:50:00,68.5,64.5,29.95,SW,221,1.0,2.0,87,0.00,,,0.00,Wunderground v.1.15,2013-07-14 02:50:00,
2013-07-13 22:55:00,68.5,64.5,29.95,SW,221,1.0,2.0,87,0.00,,,0.00,Wunderground v.1.15,2013-07-14 02:55:00,
2013-07-13 23:00:00,68.5,64.5,29.95,SW,218,1.0,1.0,87,0.00,,,0.00,Wunderground v.1.15,2013-07-14 03:00:00,
2013-07-13 23:05:00,68.3,64.6,29.95,SW,217,1.0,1.0,88,0.00,,,0.00,Wunderground v.1.15,2013-07-14 03:05:00,
2013-07-13 23:10:00,68.2,64.5,29.95,SW,217,1.0,1.0,88,0.00,,,0.00,Wunderground v.1.15,2013-07-14 03:10:00,
2013-07-13 23:20:00,67.9,64.2,29.95,SW,216,0.0,0.0,88,0.00,,,0.00,Wunderground v.1.15,2013-07-14 03:20:00,
2013-07-13 23:30:00,67.0,63.6,29.95,SW,216,0.0,0.0,89,0.00,,,0.00,Wunderground v.1.15,2013-07-14 03:30:00,
2013-07-13 23:40:00,66.7,64.0,29.95,SW,217,1.0,2.0,91,0.00,,,0.00,Wunderground v.1.15,2013-07-14 03:40:00,
2013-07-13 23:45:00,66.7,64.0,29.95,SW,216,1.0,2.0,91,0.00,,,0.00,Wunderground v.1.15,2013-07-14 03:45:00,
2013-07-13 23:50:00,66.7,64.0,29.95,SW,216,1.0,1.0,91,0.00,,,0.00,Wunderground v.1.15,2013-07-14 03:50:00,
2013-07-13 23:55:00,66.5,63.8,29.95,SW,216,0.0,1.0,91,0.00,,,0.00,Wunderground v.1.15,2013-07-14 03:55:00,